sensor_id;sensor_type;location;lat;lon;timestamp;pressure;altitude;pressure_sealevel;temperature;humidity
6393;BME280;3229;42.674;23.282;2023-11-21T00:02:06;94448.63;;;6.28;93.67
6393;BME280;3229;42.674;23.282;2023-11-21T00:04:32;94454.84;;;6.24;93.60
6393;BME280;3229;42.674;23.282;2023-11-21T00:06:59;94448.31;;;6.22;93.59
6393;BME280;3229;42.674;23.282;2023-11-21T00:09:26;94446.22;;;6.27;93.65
6393;BME280;3229;42.674;23.282;2023-11-21T00:11:54;94445.50;;;6.25;93.77
6393;BME280;3229;42.674;23.282;2023-11-21T00:14:21;94458.91;;;6.27;93.66
6393;BME280;3229;42.674;23.282;2023-11-21T00:16:47;94445.41;;;6.15;93.76
6393;BME280;3229;42.674;23.282;2023-11-21T00:19:14;94449.69;;;6.15;93.94
6393;BME280;3229;42.674;23.282;2023-11-21T00:21:41;94453.59;;;6.19;94.32
6393;BME280;3229;42.674;23.282;2023-11-21T00:24:09;94456.25;;;6.17;94.42
6393;BME280;3229;42.674;23.282;2023-11-21T00:26:39;94449.69;;;6.15;94.63
6393;BME280;3229;42.674;23.282;2023-11-21T00:29:07;94446.34;;;6.14;94.73
6393;BME280;3229;42.674;23.282;2023-11-21T00:31:34;94448.88;;;6.14;95.04
6393;BME280;3229;42.674;23.282;2023-11-21T00:34:02;94444.59;;;6.15;95.04
6393;BME280;3229;42.674;23.282;2023-11-21T00:36:30;94434.81;;;6.10;95.15
6393;BME280;3229;42.674;23.282;2023-11-21T00:38:57;94438.81;;;6.13;95.05
6393;BME280;3229;42.674;23.282;2023-11-21T00:41:24;94440.78;;;6.20;94.85
6393;BME280;3229;42.674;23.282;2023-11-21T00:43:53;94440.44;;;6.25;94.51
6393;BME280;3229;42.674;23.282;2023-11-21T00:46:21;94446.31;;;6.25;94.44
6393;BME280;3229;42.674;23.282;2023-11-21T00:48:49;94417.75;;;6.01;94.67
6393;BME280;3229;42.674;23.282;2023-11-21T00:51:16;94452.44;;;6.23;94.53
6393;BME280;3229;42.674;23.282;2023-11-21T00:53:43;94445.06;;;6.20;94.47
6393;BME280;3229;42.674;23.282;2023-11-21T00:56:09;94442.75;;;6.17;94.44
6393;BME280;3229;42.674;23.282;2023-11-21T00:58:37;94434.31;;;6.16;94.23
6393;BME280;3229;42.674;23.282;2023-11-21T01:01:04;94435.13;;;6.17;93.92
6393;BME280;3229;42.674;23.282;2023-11-21T01:03:32;94430.19;;;6.15;93.92
6393;BME280;3229;42.674;23.282;2023-11-21T01:05:59;94430.53;;;6.11;93.94
6393;BME280;3229;42.674;23.282;2023-11-21T01:08:26;94433.56;;;6.05;93.85
6393;BME280;3229;42.674;23.282;2023-11-21T01:10:53;94427.78;;;6.02;94.06
6393;BME280;3229;42.674;23.282;2023-11-21T01:13:20;94424.66;;;5.99;93.96
6393;BME280;3229;42.674;23.282;2023-11-21T01:15:47;94422.25;;;5.97;94.18
6393;BME280;3229;42.674;23.282;2023-11-21T01:18:13;94426.72;;;5.94;94.05
6393;BME280;3229;42.674;23.282;2023-11-21T01:20:41;94420.00;;;5.82;93.96
6393;BME280;3229;42.674;23.282;2023-11-21T01:23:09;94440.41;;;5.91;93.84
6393;BME280;3229;42.674;23.282;2023-11-21T01:25:36;94434.88;;;5.86;94.19
6393;BME280;3229;42.674;23.282;2023-11-21T01:28:03;94393.38;;;5.53;94.56
6393;BME280;3229;42.674;23.282;2023-11-21T01:30:30;94424.97;;;5.72;94.71
6393;BME280;3229;42.674;23.282;2023-11-21T01:32:58;94435.25;;;5.70;94.89
6393;BME280;3229;42.674;23.282;2023-11-21T01:35:25;94429.69;;;5.65;95.11
6393;BME280;3229;42.674;23.282;2023-11-21T01:37:53;94429.13;;;5.62;95.38
6393;BME280;3229;42.674;23.282;2023-11-21T01:40:20;94440.75;;;5.64;95.33
6393;BME280;3229;42.674;23.282;2023-11-21T01:42:46;94435.81;;;5.63;95.03
6393;BME280;3229;42.674;23.282;2023-11-21T01:45:14;94437.28;;;5.65;95.05
6393;BME280;3229;42.674;23.282;2023-11-21T01:47:41;94431.66;;;5.62;94.97
6393;BME280;3229;42.674;23.282;2023-11-21T01:50:13;94419.44;;;5.56;95.08
6393;BME280;3229;42.674;23.282;2023-11-21T01:52:42;94418.16;;;5.50;95.45
6393;BME280;3229;42.674;23.282;2023-11-21T01:55:11;94424.38;;;5.46;95.47
6393;BME280;3229;42.674;23.282;2023-11-21T01:57:42;94428.88;;;5.42;95.59
6393;BME280;3229;42.674;23.282;2023-11-21T02:00:09;94436.81;;;5.38;95.76
6393;BME280;3229;42.674;23.282;2023-11-21T02:02:42;94431.28;;;5.33;96.13
6393;BME280;3229;42.674;23.282;2023-11-21T02:05:09;94431.50;;;5.29;96.00
6393;BME280;3229;42.674;23.282;2023-11-21T02:07:38;94429.16;;;5.26;96.41
6393;BME280;3229;42.674;23.282;2023-11-21T02:10:06;94439.44;;;5.25;96.74
6393;BME280;3229;42.674;23.282;2023-11-21T02:12:34;94403.22;;;5.12;96.63
6393;BME280;3229;42.674;23.282;2023-11-21T02:15:02;94425.97;;;5.24;96.94
6393;BME280;3229;42.674;23.282;2023-11-21T02:17:30;94430.34;;;5.22;97.09
6393;BME280;3229;42.674;23.282;2023-11-21T02:19:58;94422.16;;;5.19;97.02
6393;BME280;3229;42.674;23.282;2023-11-21T02:22:26;94423.75;;;5.20;96.96
6393;BME280;3229;42.674;23.282;2023-11-21T02:24:57;94420.75;;;5.15;97.23
6393;BME280;3229;42.674;23.282;2023-11-21T02:27:24;94422.16;;;5.19;97.20
6393;BME280;3229;42.674;23.282;2023-11-21T02:29:53;94426.09;;;5.23;97.16
6393;BME280;3229;42.674;23.282;2023-11-21T02:32:20;94419.50;;;5.20;97.11
6393;BME280;3229;42.674;23.282;2023-11-21T02:34:48;94421.34;;;5.18;97.24
6393;BME280;3229;42.674;23.282;2023-11-21T02:37:15;94424.69;;;5.19;97.16
6393;BME280;3229;42.674;23.282;2023-11-21T02:39:42;94421.81;;;5.23;96.90
6393;BME280;3229;42.674;23.282;2023-11-21T02:42:10;94419.97;;;5.14;96.88
6393;BME280;3229;42.674;23.282;2023-11-21T02:44:37;94414.16;;;5.12;97.21
6393;BME280;3229;42.674;23.282;2023-11-21T02:47:04;94419.47;;;5.09;97.24
6393;BME280;3229;42.674;23.282;2023-11-21T02:49:31;94422.91;;;5.08;97.30
6393;BME280;3229;42.674;23.282;2023-11-21T02:52:00;94413.81;;;5.06;97.31
6393;BME280;3229;42.674;23.282;2023-11-21T02:54:27;94422.44;;;5.03;97.55
6393;BME280;3229;42.674;23.282;2023-11-21T02:56:54;94414.97;;;5.01;97.54
6393;BME280;3229;42.674;23.282;2023-11-21T02:59:22;94411.03;;;4.97;97.63
6393;BME280;3229;42.674;23.282;2023-11-21T03:01:48;94411.25;;;4.94;97.76
6393;BME280;3229;42.674;23.282;2023-11-21T03:04:16;94406.78;;;4.98;97.71
6393;BME280;3229;42.674;23.282;2023-11-21T03:06:43;94408.25;;;5.00;97.47
6393;BME280;3229;42.674;23.282;2023-11-21T03:09:11;94395.25;;;4.94;97.52
6393;BME280;3229;42.674;23.282;2023-11-21T03:11:38;94405.50;;;5.03;97.19
6393;BME280;3229;42.674;23.282;2023-11-21T03:14:05;94417.84;;;5.08;96.99
6393;BME280;3229;42.674;23.282;2023-11-21T03:16:33;94416.34;;;5.06;96.63
6393;BME280;3229;42.674;23.282;2023-11-21T03:19:00;94409.31;;;4.98;96.92
6393;BME280;3229;42.674;23.282;2023-11-21T03:21:27;94418.63;;;4.97;97.01
6393;BME280;3229;42.674;23.282;2023-11-21T03:23:54;94426.34;;;4.96;96.97
6393;BME280;3229;42.674;23.282;2023-11-21T03:26:21;94437.28;;;4.96;97.34
6393;BME280;3229;42.674;23.282;2023-11-21T03:28:48;94434.75;;;4.96;97.52
6393;BME280;3229;42.674;23.282;2023-11-21T03:31:15;94428.88;;;4.96;97.66
6393;BME280;3229;42.674;23.282;2023-11-21T03:33:45;94415.50;;;4.94;97.61
6393;BME280;3229;42.674;23.282;2023-11-21T03:36:12;94430.16;;;5.01;97.49
6393;BME280;3229;42.674;23.282;2023-11-21T03:38:40;94435.31;;;5.00;97.50
6393;BME280;3229;42.674;23.282;2023-11-21T03:41:07;94420.25;;;4.98;97.55
6393;BME280;3229;42.674;23.282;2023-11-21T03:43:35;94415.50;;;4.94;97.75
6393;BME280;3229;42.674;23.282;2023-11-21T03:46:02;94408.03;;;4.92;98.15
6393;BME280;3229;42.674;23.282;2023-11-21T03:48:29;94407.19;;;4.92;98.10
6393;BME280;3229;42.674;23.282;2023-11-21T03:50:57;94392.94;;;4.91;97.96
6393;BME280;3229;42.674;23.282;2023-11-21T03:53:24;94402.38;;;5.00;98.38
6393;BME280;3229;42.674;23.282;2023-11-21T03:55:50;94394.69;;;5.01;98.60
6393;BME280;3229;42.674;23.282;2023-11-21T03:58:17;94392.72;;;5.05;98.16
6393;BME280;3229;42.674;23.282;2023-11-21T04:00:46;94403.56;;;5.07;98.04
6393;BME280;3229;42.674;23.282;2023-11-21T04:03:14;94395.75;;;5.10;97.94
6393;BME280;3229;42.674;23.282;2023-11-21T04:05:41;94395.63;;;5.12;97.75
6393;BME280;3229;42.674;23.282;2023-11-21T04:08:09;94392.16;;;5.13;97.73
6393;BME280;3229;42.674;23.282;2023-11-21T04:10:35;94392.88;;;5.15;97.50
6393;BME280;3229;42.674;23.282;2023-11-21T04:13:04;94391.16;;;5.15;97.53
6393;BME280;3229;42.674;23.282;2023-11-21T04:15:32;94400.25;;;5.18;97.21
6393;BME280;3229;42.674;23.282;2023-11-21T04:17:58;94394.38;;;5.17;96.98
6393;BME280;3229;42.674;23.282;2023-11-21T04:20:25;94386.66;;;5.19;96.74
6393;BME280;3229;42.674;23.282;2023-11-21T04:22:52;94389.06;;;5.20;97.02
6393;BME280;3229;42.674;23.282;2023-11-21T04:25:20;94378.47;;;5.15;96.88
6393;BME280;3229;42.674;23.282;2023-11-21T04:27:48;94392.31;;;5.22;96.79
6393;BME280;3229;42.674;23.282;2023-11-21T04:30:15;94394.59;;;5.25;96.68
6393;BME280;3229;42.674;23.282;2023-11-21T04:32:42;94390.84;;;5.31;96.42
6393;BME280;3229;42.674;23.282;2023-11-21T04:35:09;94395.91;;;5.31;96.51
6393;BME280;3229;42.674;23.282;2023-11-21T04:37:36;94395.66;;;5.34;96.58
6393;BME280;3229;42.674;23.282;2023-11-21T04:40:03;94400.72;;;5.34;95.97
6393;BME280;3229;42.674;23.282;2023-11-21T04:42:34;94403.72;;;5.28;96.53
6393;BME280;3229;42.674;23.282;2023-11-21T04:45:01;94402.22;;;5.25;96.60
6393;BME280;3229;42.674;23.282;2023-11-21T04:47:30;94401.19;;;5.28;96.43
6393;BME280;3229;42.674;23.282;2023-11-21T04:49:57;94395.06;;;5.19;96.36
6393;BME280;3229;42.674;23.282;2023-11-21T04:52:24;94383.97;;;5.09;95.97
6393;BME280;3229;42.674;23.282;2023-11-21T04:54:51;94411.88;;;5.20;96.29
6393;BME280;3229;42.674;23.282;2023-11-21T04:57:20;94313.41;;;4.58;96.15
6393;BME280;3229;42.674;23.282;2023-11-21T04:59:49;94388.25;;;5.09;96.31
6393;BME280;3229;42.674;23.282;2023-11-21T05:02:16;94401.28;;;5.15;96.12
6393;BME280;3229;42.674;23.282;2023-11-21T05:04:44;94411.88;;;5.20;96.10
6393;BME280;3229;42.674;23.282;2023-11-21T05:07:14;94413.63;;;5.20;95.89
6393;BME280;3229;42.674;23.282;2023-11-21T05:09:42;94404.28;;;5.20;96.02
6393;BME280;3229;42.674;23.282;2023-11-21T05:12:11;94401.16;;;5.17;96.06
6393;BME280;3229;42.674;23.282;2023-11-21T05:14:39;94399.94;;;5.22;95.91
6393;BME280;3229;42.674;23.282;2023-11-21T05:17:07;94397.47;;;5.21;95.75
6393;BME280;3229;42.674;23.282;2023-11-21T05:19:34;94396.47;;;5.23;95.52
6393;BME280;3229;42.674;23.282;2023-11-21T05:22:02;94395.88;;;5.20;95.58
6393;BME280;3229;42.674;23.282;2023-11-21T05:24:29;94397.59;;;5.19;95.42
6393;BME280;3229;42.674;23.282;2023-11-21T05:26:56;94396.00;;;5.18;95.68
6393;BME280;3229;42.674;23.282;2023-11-21T05:29:23;94408.69;;;5.18;95.90
6393;BME280;3229;42.674;23.282;2023-11-21T05:31:51;94394.38;;;5.17;95.91
6393;BME280;3229;42.674;23.282;2023-11-21T05:34:19;94408.34;;;5.23;95.83
6393;BME280;3229;42.674;23.282;2023-11-21T05:36:49;94413.06;;;5.27;95.58
6393;BME280;3229;42.674;23.282;2023-11-21T05:39:16;94410.53;;;5.27;95.57
6393;BME280;3229;42.674;23.282;2023-11-21T05:41:44;94418.13;;;5.27;95.17
6393;BME280;3229;42.674;23.282;2023-11-21T05:44:10;94412.34;;;5.25;95.41
6393;BME280;3229;42.674;23.282;2023-11-21T05:46:39;94385.03;;;5.07;95.33
6393;BME280;3229;42.674;23.282;2023-11-21T05:49:08;94408.88;;;5.15;95.64
6393;BME280;3229;42.674;23.282;2023-11-21T05:51:36;94403.81;;;5.15;95.82
6393;BME280;3229;42.674;23.282;2023-11-21T05:54:04;94395.28;;;5.16;95.98
6393;BME280;3229;42.674;23.282;2023-11-21T05:56:31;94389.28;;;5.17;95.57
6393;BME280;3229;42.674;23.282;2023-11-21T05:58:58;94398.88;;;5.25;95.70
6393;BME280;3229;42.674;23.282;2023-11-21T06:01:25;94405.13;;;5.32;95.35
6393;BME280;3229;42.674;23.282;2023-11-21T06:03:53;94403.59;;;5.29;95.02
6393;BME280;3229;42.674;23.282;2023-11-21T06:06:20;94406.84;;;5.32;95.34
6393;BME280;3229;42.674;23.282;2023-11-21T06:08:49;94405.72;;;5.36;95.50
6393;BME280;3229;42.674;23.282;2023-11-21T06:11:16;94411.91;;;5.43;95.27
6393;BME280;3229;42.674;23.282;2023-11-21T06:13:43;94417.69;;;5.56;95.02
6393;BME280;3229;42.674;23.282;2023-11-21T06:16:10;94332.03;;;5.03;94.64
6393;BME280;3229;42.674;23.282;2023-11-21T06:18:40;94415.97;;;5.68;94.47
6393;BME280;3229;42.674;23.282;2023-11-21T06:21:09;94421.72;;;5.70;94.03
6393;BME280;3229;42.674;23.282;2023-11-21T06:23:36;94417.25;;;5.73;93.73
6393;BME280;3229;42.674;23.282;2023-11-21T06:26:04;94424.06;;;5.73;93.69
6393;BME280;3229;42.674;23.282;2023-11-21T06:28:31;94436.94;;;5.70;93.92
6393;BME280;3229;42.674;23.282;2023-11-21T06:30:58;94431.22;;;5.79;93.62
6393;BME280;3229;42.674;23.282;2023-11-21T06:33:30;94427.41;;;5.85;93.44
6393;BME280;3229;42.674;23.282;2023-11-21T06:35:57;94435.34;;;5.91;92.81
6393;BME280;3229;42.674;23.282;2023-11-21T06:38:23;94428.00;;;5.99;92.52
6393;BME280;3229;42.674;23.282;2023-11-21T06:40:53;94438.28;;;6.09;92.19
6393;BME280;3229;42.674;23.282;2023-11-21T06:43:22;94428.44;;;6.16;91.37
6393;BME280;3229;42.674;23.282;2023-11-21T06:45:49;94447.94;;;6.26;90.92
6393;BME280;3229;42.674;23.282;2023-11-21T06:48:16;94441.81;;;6.40;90.09
6393;BME280;3229;42.674;23.282;2023-11-21T06:50:42;94442.25;;;6.45;89.76
6393;BME280;3229;42.674;23.282;2023-11-21T06:53:09;94446.81;;;6.63;89.30
6393;BME280;3229;42.674;23.282;2023-11-21T06:55:36;94429.47;;;6.68;88.56
6393;BME280;3229;42.674;23.282;2023-11-21T06:58:03;94441.88;;;6.93;87.59
6393;BME280;3229;42.674;23.282;2023-11-21T07:00:31;94445.78;;;6.97;87.33
6393;BME280;3229;42.674;23.282;2023-11-21T07:02:59;94445.19;;;7.05;87.50
6393;BME280;3229;42.674;23.282;2023-11-21T07:05:25;94443.94;;;7.20;86.60
6393;BME280;3229;42.674;23.282;2023-11-21T07:07:52;94441.03;;;7.25;85.87
6393;BME280;3229;42.674;23.282;2023-11-21T07:10:19;94435.13;;;7.24;85.92
6393;BME280;3229;42.674;23.282;2023-11-21T07:12:46;94430.22;;;7.33;85.57
6393;BME280;3229;42.674;23.282;2023-11-21T07:15:13;94431.03;;;7.33;85.45
6393;BME280;3229;42.674;23.282;2023-11-21T07:17:41;94418.41;;;7.22;85.16
6393;BME280;3229;42.674;23.282;2023-11-21T07:20:10;94429.13;;;7.25;85.48
6393;BME280;3229;42.674;23.282;2023-11-21T07:22:37;94427.13;;;7.29;85.89
6393;BME280;3229;42.674;23.282;2023-11-21T07:25:04;94434.66;;;7.31;86.27
6393;BME280;3229;42.674;23.282;2023-11-21T07:27:32;94409.41;;;7.18;86.08
6393;BME280;3229;42.674;23.282;2023-11-21T07:30:01;94434.56;;;7.42;86.34
6393;BME280;3229;42.674;23.282;2023-11-21T07:32:30;94441.59;;;7.49;86.33
6393;BME280;3229;42.674;23.282;2023-11-21T07:34:58;94447.16;;;7.64;85.91
6393;BME280;3229;42.674;23.282;2023-11-21T07:37:26;94439.25;;;7.67;84.91
6393;BME280;3229;42.674;23.282;2023-11-21T07:39:54;94439.16;;;7.69;84.57
6393;BME280;3229;42.674;23.282;2023-11-21T07:42:22;94438.22;;;7.70;84.81
6393;BME280;3229;42.674;23.282;2023-11-21T07:44:49;94431.53;;;7.69;84.55
6393;BME280;3229;42.674;23.282;2023-11-21T07:47:17;94430.44;;;7.71;84.61
6393;BME280;3229;42.674;23.282;2023-11-21T07:49:44;94433.53;;;7.75;84.74
6393;BME280;3229;42.674;23.282;2023-11-21T07:52:13;94416.66;;;7.74;84.80
6393;BME280;3229;42.674;23.282;2023-11-21T07:54:41;94421.47;;;7.77;84.80
6393;BME280;3229;42.674;23.282;2023-11-21T07:57:08;94419.13;;;7.85;84.75
6393;BME280;3229;42.674;23.282;2023-11-21T07:59:38;94421.41;;;7.88;84.93
6393;BME280;3229;42.674;23.282;2023-11-21T08:02:06;94412.97;;;7.88;84.22
6393;BME280;3229;42.674;23.282;2023-11-21T08:04:33;94410.19;;;7.91;83.97
6393;BME280;3229;42.674;23.282;2023-11-21T08:07:00;94384.28;;;7.86;83.82
6393;BME280;3229;42.674;23.282;2023-11-21T08:09:30;94419.88;;;8.07;83.98
6393;BME280;3229;42.674;23.282;2023-11-21T08:11:58;94401.22;;;8.06;83.66
6393;BME280;3229;42.674;23.282;2023-11-21T08:14:26;94410.13;;;8.21;83.47
6393;BME280;3229;42.674;23.282;2023-11-21T08:16:52;94410.94;;;8.32;82.97
6393;BME280;3229;42.674;23.282;2023-11-21T08:19:23;94418.13;;;8.38;82.89
6393;BME280;3229;42.674;23.282;2023-11-21T08:21:50;94409.81;;;8.45;82.82
6393;BME280;3229;42.674;23.282;2023-11-21T08:24:20;94400.97;;;8.49;82.36
6393;BME280;3229;42.674;23.282;2023-11-21T08:26:48;94412.78;;;8.60;82.44
6393;BME280;3229;42.674;23.282;2023-11-21T08:29:15;94374.53;;;8.50;82.23
6393;BME280;3229;42.674;23.282;2023-11-21T08:31:42;94388.34;;;8.67;81.54
6393;BME280;3229;42.674;23.282;2023-11-21T08:34:10;94390.94;;;8.87;80.72
6393;BME280;3229;42.674;23.282;2023-11-21T08:36:41;94411.06;;;8.99;80.27
6393;BME280;3229;42.674;23.282;2023-11-21T08:39:08;94411.44;;;9.04;79.73
6393;BME280;3229;42.674;23.282;2023-11-21T08:41:36;94406.88;;;9.08;79.24
6393;BME280;3229;42.674;23.282;2023-11-21T08:44:04;94412.25;;;9.15;79.28
6393;BME280;3229;42.674;23.282;2023-11-21T08:46:32;94404.19;;;9.10;79.11
6393;BME280;3229;42.674;23.282;2023-11-21T08:49:00;94413.34;;;9.12;79.35
6393;BME280;3229;42.674;23.282;2023-11-21T08:51:27;94405.28;;;9.07;80.09
6393;BME280;3229;42.674;23.282;2023-11-21T08:53:54;94407.03;;;9.16;79.46
6393;BME280;3229;42.674;23.282;2023-11-21T08:56:24;94394.81;;;9.20;79.09
6393;BME280;3229;42.674;23.282;2023-11-21T08:58:51;94387.38;;;9.26;79.00
6393;BME280;3229;42.674;23.282;2023-11-21T09:01:19;94381.06;;;9.30;78.33
6393;BME280;3229;42.674;23.282;2023-11-21T09:03:46;94381.75;;;9.33;78.42
6393;BME280;3229;42.674;23.282;2023-11-21T09:06:13;94372.59;;;9.40;77.80
6393;BME280;3229;42.674;23.282;2023-11-21T09:08:40;94348.97;;;9.38;77.41
6393;BME280;3229;42.674;23.282;2023-11-21T09:11:07;94355.41;;;9.42;77.84
6393;BME280;3229;42.674;23.282;2023-11-21T09:13:34;94341.72;;;9.33;78.14
6393;BME280;3229;42.674;23.282;2023-11-21T09:16:01;94342.63;;;9.42;78.23
6393;BME280;3229;42.674;23.282;2023-11-21T09:18:29;94339.91;;;9.53;78.16
6393;BME280;3229;42.674;23.282;2023-11-21T09:20:56;94336.13;;;9.57;77.55
6393;BME280;3229;42.674;23.282;2023-11-21T09:23:24;94312.19;;;9.58;77.55
6393;BME280;3229;42.674;23.282;2023-11-21T09:25:50;94318.88;;;9.69;77.33
6393;BME280;3229;42.674;23.282;2023-11-21T09:28:17;94309.56;;;9.77;77.25
6393;BME280;3229;42.674;23.282;2023-11-21T09:30:44;94314.63;;;9.87;77.34
6393;BME280;3229;42.674;23.282;2023-11-21T09:33:10;94301.16;;;9.95;76.56
6393;BME280;3229;42.674;23.282;2023-11-21T09:35:39;94295.31;;;10.02;75.84
6393;BME280;3229;42.674;23.282;2023-11-21T09:38:05;94277.06;;;9.97;75.23
6393;BME280;3229;42.674;23.282;2023-11-21T09:40:35;94293.34;;;10.14;74.71
6393;BME280;3229;42.674;23.282;2023-11-21T09:43:06;94287.91;;;10.27;74.60
6393;BME280;3229;42.674;23.282;2023-11-21T09:45:35;94276.97;;;10.35;74.51
6393;BME280;3229;42.674;23.282;2023-11-21T09:48:02;94270.41;;;10.50;73.89
6393;BME280;3229;42.674;23.282;2023-11-21T09:50:32;94262.78;;;10.58;72.47
6393;BME280;3229;42.674;23.282;2023-11-21T09:53:09;94253.31;;;10.50;73.11
6393;BME280;3229;42.674;23.282;2023-11-21T09:55:42;94219.59;;;10.29;73.57
6393;BME280;3229;42.674;23.282;2023-11-21T09:58:10;94250.94;;;10.57;73.59
6393;BME280;3229;42.674;23.282;2023-11-21T10:00:40;94250.72;;;10.68;73.46
6393;BME280;3229;42.674;23.282;2023-11-21T10:03:07;94249.66;;;10.79;73.08
6393;BME280;3229;42.674;23.282;2023-11-21T10:05:34;94240.50;;;10.94;72.62
6393;BME280;3229;42.674;23.282;2023-11-21T10:08:01;94239.63;;;11.12;71.92
6393;BME280;3229;42.674;23.282;2023-11-21T10:10:32;94234.25;;;11.23;71.90
6393;BME280;3229;42.674;23.282;2023-11-21T10:13:02;94228.56;;;11.37;71.66
6393;BME280;3229;42.674;23.282;2023-11-21T10:15:33;94222.38;;;11.56;70.38
6393;BME280;3229;42.674;23.282;2023-11-21T10:18:02;94136.63;;;11.10;70.21
6393;BME280;3229;42.674;23.282;2023-11-21T10:20:30;94217.78;;;11.68;69.66
6393;BME280;3229;42.674;23.282;2023-11-21T10:22:56;94220.19;;;11.77;68.19
6393;BME280;3229;42.674;23.282;2023-11-21T10:25:23;94219.03;;;11.64;68.82
6393;BME280;3229;42.674;23.282;2023-11-21T10:27:57;94217.28;;;11.64;69.21
6393;BME280;3229;42.674;23.282;2023-11-21T10:30:28;94220.34;;;11.68;69.46
6393;BME280;3229;42.674;23.282;2023-11-21T10:32:58;94215.69;;;11.71;69.56
6393;BME280;3229;42.674;23.282;2023-11-21T10:35:38;94207.06;;;11.80;68.46
6393;BME280;3229;42.674;23.282;2023-11-21T10:38:05;94206.91;;;11.82;68.36
6393;BME280;3229;42.674;23.282;2023-11-21T10:40:37;94202.13;;;11.87;67.47
6393;BME280;3229;42.674;23.282;2023-11-21T10:43:09;94202.81;;;11.89;67.86
6393;BME280;3229;42.674;23.282;2023-11-21T10:45:36;94198.31;;;11.99;67.60
6393;BME280;3229;42.674;23.282;2023-11-21T10:48:05;94177.00;;;11.91;66.92
6393;BME280;3229;42.674;23.282;2023-11-21T10:50:34;94187.75;;;11.94;67.21
6393;BME280;3229;42.674;23.282;2023-11-21T10:53:02;94192.09;;;12.10;67.34
6393;BME280;3229;42.674;23.282;2023-11-21T10:55:32;94165.31;;;12.04;67.39
6393;BME280;3229;42.674;23.282;2023-11-21T10:58:00;94178.00;;;12.14;66.60
6393;BME280;3229;42.674;23.282;2023-11-21T11:00:31;94173.03;;;12.04;66.23
6393;BME280;3229;42.674;23.282;2023-11-21T11:02:59;94176.53;;;12.03;66.72
6393;BME280;3229;42.674;23.282;2023-11-21T11:05:27;94178.31;;;12.11;66.95
6393;BME280;3229;42.674;23.282;2023-11-21T11:07:58;94168.06;;;12.11;67.25
6393;BME280;3229;42.674;23.282;2023-11-21T11:10:27;94173.19;;;12.19;66.67
6393;BME280;3229;42.674;23.282;2023-11-21T11:12:55;94166.31;;;12.20;66.39
6393;BME280;3229;42.674;23.282;2023-11-21T11:15:23;94161.00;;;12.21;66.28
6393;BME280;3229;42.674;23.282;2023-11-21T11:17:52;94163.13;;;12.18;66.78
6393;BME280;3229;42.674;23.282;2023-11-21T11:20:23;94153.97;;;12.15;66.76
6393;BME280;3229;42.674;23.282;2023-11-21T11:22:59;94155.75;;;12.15;66.69
6393;BME280;3229;42.674;23.282;2023-11-21T11:25:42;94137.47;;;12.18;66.43
6393;BME280;3229;42.674;23.282;2023-11-21T11:28:17;94136.50;;;12.19;66.02
6393;BME280;3229;42.674;23.282;2023-11-21T11:30:56;94137.63;;;12.24;66.57
6393;BME280;3229;42.674;23.282;2023-11-21T11:33:35;94131.38;;;12.27;66.60
6393;BME280;3229;42.674;23.282;2023-11-21T11:36:06;94128.66;;;12.28;66.49
6393;BME280;3229;42.674;23.282;2023-11-21T11:38:36;94117.13;;;12.24;66.75
6393;BME280;3229;42.674;23.282;2023-11-21T11:41:05;94135.53;;;12.28;66.61
6393;BME280;3229;42.674;23.282;2023-11-21T11:43:32;94141.28;;;12.30;66.64
6393;BME280;3229;42.674;23.282;2023-11-21T11:46:10;94141.16;;;12.32;67.10
6393;BME280;3229;42.674;23.282;2023-11-21T11:48:40;94149.34;;;12.27;67.70
6393;BME280;3229;42.674;23.282;2023-11-21T11:51:10;94145.19;;;12.18;70.17
6393;BME280;3229;42.674;23.282;2023-11-21T11:53:40;94136.34;;;12.12;71.52
6393;BME280;3229;42.674;23.282;2023-11-21T11:56:25;94137.78;;;12.15;70.60
6393;BME280;3229;42.674;23.282;2023-11-21T11:58:54;94132.50;;;12.16;68.63
6393;BME280;3229;42.674;23.282;2023-11-21T12:01:23;94135.41;;;11.97;69.25
6393;BME280;3229;42.674;23.282;2023-11-21T12:04:26;94143.22;;;11.87;71.15
6393;BME280;3229;42.674;23.282;2023-11-21T12:07:00;94128.75;;;11.70;73.62
6393;BME280;3229;42.674;23.282;2023-11-21T12:09:29;94141.56;;;11.78;74.89
6393;BME280;3229;42.674;23.282;2023-11-21T12:11:56;94121.69;;;11.55;75.68
6393;BME280;3229;42.674;23.282;2023-11-21T12:14:23;94140.44;;;11.64;76.29
6393;BME280;3229;42.674;23.282;2023-11-21T12:16:51;94147.63;;;11.61;78.00
6393;BME280;3229;42.674;23.282;2023-11-21T12:19:18;94156.25;;;11.51;80.19
6393;BME280;3229;42.674;23.282;2023-11-21T12:21:48;94139.13;;;11.44;80.43
6393;BME280;3229;42.674;23.282;2023-11-21T12:24:16;94124.41;;;11.46;80.06
6393;BME280;3229;42.674;23.282;2023-11-21T12:26:43;94129.03;;;11.42;77.59
6393;BME280;3229;42.674;23.282;2023-11-21T12:29:10;94140.56;;;11.38;77.08
6393;BME280;3229;42.674;23.282;2023-11-21T12:31:37;94147.91;;;11.33;78.01
6393;BME280;3229;42.674;23.282;2023-11-21T12:34:05;94144.97;;;11.20;80.69
6393;BME280;3229;42.674;23.282;2023-11-21T12:36:32;94145.47;;;11.23;80.67
6393;BME280;3229;42.674;23.282;2023-11-21T12:39:02;94130.09;;;11.15;82.00
6393;BME280;3229;42.674;23.282;2023-11-21T12:41:29;94135.50;;;11.12;83.25
6393;BME280;3229;42.674;23.282;2023-11-21T12:43:57;94121.28;;;11.10;84.04
6393;BME280;3229;42.674;23.282;2023-11-21T12:46:24;94118.22;;;11.06;83.54
6393;BME280;3229;42.674;23.282;2023-11-21T12:48:54;94119.66;;;11.09;82.28
6393;BME280;3229;42.674;23.282;2023-11-21T12:51:22;94099.03;;;11.02;81.66
6393;BME280;3229;42.674;23.282;2023-11-21T12:53:50;94099.50;;;10.97;79.79
6393;BME280;3229;42.674;23.282;2023-11-21T12:56:21;94023.66;;;10.38;79.53
6393;BME280;3229;42.674;23.282;2023-11-21T12:58:49;94109.69;;;10.89;79.96
6393;BME280;3229;42.674;23.282;2023-11-21T13:01:17;94064.50;;;10.64;80.77
6393;BME280;3229;42.674;23.282;2023-11-21T13:03:47;94091.25;;;10.77;82.70
6393;BME280;3229;42.674;23.282;2023-11-21T13:06:17;94091.91;;;10.79;83.59
6393;BME280;3229;42.674;23.282;2023-11-21T13:08:45;94089.94;;;10.73;83.16
6393;BME280;3229;42.674;23.282;2023-11-21T13:11:13;94090.13;;;10.72;83.58
6393;BME280;3229;42.674;23.282;2023-11-21T13:13:42;94092.50;;;10.73;83.94
6393;BME280;3229;42.674;23.282;2023-11-21T13:16:10;94086.09;;;10.69;83.44
6393;BME280;3229;42.674;23.282;2023-11-21T13:18:38;94085.47;;;10.67;84.14
6393;BME280;3229;42.674;23.282;2023-11-21T13:21:08;94093.31;;;10.74;84.25
6393;BME280;3229;42.674;23.282;2023-11-21T13:23:39;94086.59;;;10.73;84.15
6393;BME280;3229;42.674;23.282;2023-11-21T13:26:07;94085.13;;;10.70;85.54